createdAt,value
2019-06-10T00:00:42.054Z,3.10
2019-06-10T00:03:12.806Z,2.30
2019-06-10T00:05:46.376Z,3.33
2019-06-10T00:08:21.014Z,2.90
2019-06-10T00:10:52.310Z,3.07
2019-06-10T00:13:22.543Z,2.60
2019-06-10T00:15:54.043Z,2.63
2019-06-10T00:18:38.369Z,2.90
2019-06-10T00:20:57.310Z,3.00
2019-06-10T00:23:27.822Z,3.10
2019-06-10T00:26:01.277Z,3.03
2019-06-10T00:28:31.115Z,2.70
2019-06-10T00:31:03.673Z,2.70
2019-06-10T00:33:33.532Z,3.20
2019-06-10T00:36:07.010Z,3.50
2019-06-10T00:38:36.161Z,3.07
2019-06-10T00:41:07.631Z,3.50
2019-06-10T00:43:42.866Z,2.90
2019-06-10T00:46:13.905Z,3.43
2019-06-10T00:48:44.216Z,2.90
2019-06-10T00:51:14.469Z,3.30
2019-06-10T00:53:51.440Z,3.10
2019-06-10T00:56:21.795Z,3.17
2019-06-10T00:58:52.138Z,2.70
2019-06-10T01:01:22.868Z,2.70
2019-06-10T01:04:06.520Z,2.80
2019-06-10T01:06:37.026Z,2.60
2019-06-10T01:09:15.599Z,2.87
2019-06-10T01:11:46.526Z,3.00
2019-06-10T01:14:17.590Z,2.73
2019-06-10T01:16:50.505Z,2.70
2019-06-10T01:19:25.030Z,3.00
2019-06-10T01:21:55.693Z,3.00
2019-06-10T01:24:26.444Z,2.77
2019-06-10T01:26:56.659Z,2.53
2019-06-10T01:29:28.294Z,3.13
2019-06-10T01:31:58.987Z,2.50
2019-06-10T01:34:31.120Z,2.57
2019-06-10T01:37:06.769Z,2.73
2019-06-10T01:39:41.219Z,2.67
2019-06-10T01:42:13.989Z,2.53
2019-06-10T01:44:44.456Z,2.60
2019-06-10T01:47:17.570Z,2.73
2019-06-10T01:49:51.733Z,2.57
2019-06-10T01:52:25.359Z,2.50
2019-06-10T01:54:57.180Z,2.50
2019-06-10T01:57:30.880Z,2.67
2019-06-10T02:00:09.375Z,2.57
2019-06-10T02:02:37.483Z,2.83
2019-06-10T02:05:12.609Z,3.40
2019-06-10T02:07:42.350Z,3.23
2019-06-10T02:10:19.071Z,2.40
2019-06-10T02:12:50.885Z,3.17
2019-06-10T02:15:31.394Z,2.80
2019-06-10T02:18:02.345Z,3.00
2019-06-10T02:20:34.657Z,2.70
2019-06-10T02:23:07.207Z,3.57
2019-06-10T02:25:41.223Z,3.07
2019-06-10T02:28:14.887Z,2.80
2019-06-10T02:31:43.824Z,2.70
2019-06-10T02:35:14.204Z,2.87
2019-06-10T02:43:49.510Z,4.00
2019-06-10T02:46:30.818Z,2.70
2019-06-10T02:49:21.519Z,2.83
2019-06-10T02:51:43.800Z,3.33
2019-06-10T02:57:40.038Z,3.03
2019-06-10T03:00:20.704Z,3.57
2019-06-10T03:02:48.839Z,2.70
2019-06-10T03:05:30.630Z,3.13
2019-06-10T03:07:58.152Z,4.10
2019-06-10T03:10:37.167Z,3.33
2019-06-10T03:13:09.022Z,2.90
2019-06-10T03:15:44.093Z,3.20
2019-06-10T03:18:17.816Z,3.27
2019-06-10T03:20:49.073Z,3.40
2019-06-10T03:23:23.239Z,3.00
2019-06-10T03:26:04.679Z,3.20
2019-06-10T03:28:35.494Z,3.10
2019-06-10T03:31:18.135Z,3.03
2019-06-10T03:33:49.222Z,3.20
2019-06-10T03:36:28.805Z,2.80
2019-06-10T03:39:02.653Z,2.73
2019-06-10T03:41:34.071Z,2.87
2019-06-10T03:44:05.686Z,3.20
2019-06-10T03:46:37.084Z,2.93
2019-06-10T03:49:08.904Z,3.30
2019-06-10T03:51:42.569Z,3.17
2019-06-10T03:54:13.336Z,3.00
2019-06-10T03:56:44.257Z,3.03
2019-06-10T03:59:15.052Z,3.10
2019-06-10T04:01:45.739Z,2.80
2019-06-10T04:04:19.426Z,2.77
2019-06-10T04:06:53.170Z,2.80
2019-06-10T04:09:29.639Z,2.83
2019-06-10T04:12:02.132Z,3.00
2019-06-10T04:14:34.422Z,2.87
2019-06-10T04:17:13.092Z,3.07
2019-06-10T04:19:47.176Z,3.30
2019-06-10T04:22:19.590Z,2.70
2019-06-10T04:24:51.956Z,2.97
2019-06-10T04:27:24.162Z,2.73
2019-06-10T04:29:57.653Z,2.87
2019-06-10T04:32:29.349Z,3.10
2019-06-10T04:35:04.880Z,3.50
2019-06-10T04:37:46.583Z,3.67
2019-06-10T04:40:21.101Z,4.30
2019-06-10T04:42:53.106Z,3.33
2019-06-10T04:45:27.784Z,4.23
2019-06-10T04:48:03.021Z,3.30
2019-06-10T04:50:45.508Z,3.70
2019-06-10T04:53:14.457Z,3.60
2019-06-10T04:55:48.367Z,3.33
2019-06-10T04:58:23.326Z,3.30
2019-06-10T05:00:54.284Z,3.40
2019-06-10T05:03:26.784Z,3.50
2019-06-10T05:05:59.254Z,3.90
2019-06-10T05:08:33.667Z,3.70
2019-06-10T05:11:14.517Z,3.27
2019-06-10T05:13:46.779Z,3.13
2019-06-10T05:16:17.830Z,3.47
2019-06-10T05:18:54.842Z,3.10
2019-06-10T05:21:29.407Z,3.70
2019-06-10T05:24:02.782Z,3.33
2019-06-10T05:26:33.727Z,4.23
2019-06-10T05:29:07.641Z,3.77
2019-06-10T05:31:37.789Z,3.57
2019-06-10T05:34:08.815Z,3.67
2019-06-10T05:36:39.296Z,3.40
2019-06-10T05:39:12.034Z,3.87
2019-06-10T05:41:43.269Z,3.27
2019-06-10T05:44:14.824Z,3.17
2019-06-10T05:46:45.255Z,2.83
2019-06-10T05:49:16.136Z,3.40
2019-06-10T05:51:46.548Z,2.97
2019-06-10T05:54:17.607Z,3.13
2019-06-10T05:56:48.195Z,2.67
2019-06-10T05:59:18.822Z,3.03
2019-06-10T06:01:49.792Z,2.87
2019-06-10T06:04:23.315Z,3.07
2019-06-10T06:06:54.231Z,2.60
2019-06-10T06:09:27.094Z,3.13
2019-06-10T06:11:57.719Z,2.60
2019-06-10T06:14:29.546Z,2.87
2019-06-10T06:17:02.221Z,2.93
2019-06-10T06:19:35.500Z,2.90
2019-06-10T06:22:06.004Z,2.80
2019-06-10T06:24:38.003Z,2.63
2019-06-10T06:27:09.184Z,3.13
2019-06-10T06:29:39.956Z,3.00
2019-06-10T06:32:13.188Z,2.77
2019-06-10T06:34:44.723Z,2.73
2019-06-10T06:37:17.012Z,2.37
2019-06-10T06:39:48.745Z,3.07
2019-06-10T06:42:20.171Z,3.03
2019-06-10T06:44:54.501Z,3.10
2019-06-10T06:47:25.831Z,2.93
2019-06-10T06:49:58.975Z,2.93
2019-06-10T06:53:04.945Z,2.70
2019-06-10T06:55:09.526Z,2.20
2019-06-10T06:57:43.159Z,2.70
2019-06-10T07:00:40.819Z,2.70
2019-06-10T07:02:47.291Z,2.20
2019-06-10T07:05:20.170Z,2.43
2019-06-10T07:07:55.640Z,2.70
2019-06-10T07:10:33.183Z,2.07
2019-06-10T07:13:06.932Z,2.43
2019-06-10T07:15:47.048Z,2.50
2019-06-10T07:18:17.199Z,2.20
2019-06-10T07:20:48.747Z,2.40
2019-06-10T07:23:22.525Z,2.10
2019-06-10T07:25:53.558Z,2.67
2019-06-10T07:28:28.919Z,2.10
2019-06-10T07:31:19.853Z,2.70
2019-06-10T07:33:39.212Z,2.30
2019-06-10T07:36:09.151Z,2.13
2019-06-10T07:38:45.754Z,2.60
2019-06-10T07:41:14.012Z,2.67
2019-06-10T07:43:49.420Z,2.10
2019-06-10T07:46:23.098Z,2.33
2019-06-10T07:48:56.822Z,2.43
2019-06-10T07:51:27.357Z,2.80
2019-06-10T07:53:58.797Z,2.50
2019-06-10T07:56:33.814Z,2.60
2019-06-10T07:59:09.531Z,2.80
2019-06-10T08:01:48.096Z,3.50
2019-06-10T08:04:13.001Z,2.43
2019-06-10T08:06:45.686Z,2.97
2019-06-10T08:09:16.220Z,2.37
2019-06-10T08:11:48.625Z,2.53
2019-06-10T08:14:22.288Z,2.07
2019-06-10T08:16:53.160Z,2.50
2019-06-10T08:19:34.270Z,2.13
2019-06-10T08:21:57.862Z,2.07
2019-06-10T08:24:28.666Z,2.30
2019-06-10T08:27:02.538Z,2.43
2019-06-10T08:29:33.153Z,2.10
2019-06-10T08:32:05.660Z,1.77
2019-06-10T08:34:38.019Z,2.00
2019-06-10T08:37:08.338Z,2.00
2019-06-10T08:39:40.213Z,2.17
2019-06-10T08:42:12.538Z,2.20
2019-06-10T08:44:47.246Z,2.20
2019-06-10T08:47:16.683Z,2.40
2019-06-10T08:49:49.108Z,2.40
2019-06-10T08:52:23.910Z,2.00
2019-06-10T08:54:57.961Z,2.30
2019-06-10T08:57:29.003Z,2.10
2019-06-10T09:00:11.001Z,2.00
2019-06-10T09:02:35.118Z,2.00
2019-06-10T09:05:15.615Z,2.30
2019-06-10T09:07:50.910Z,2.07
2019-06-10T09:10:22.731Z,2.20
2019-06-10T09:12:54.768Z,3.20
2019-06-10T09:15:32.344Z,2.80
2019-06-10T09:18:04.232Z,2.70
2019-06-10T09:20:35.302Z,2.70
2019-06-10T09:23:21.593Z,2.47
2019-06-10T09:25:45.252Z,2.50
2019-06-10T09:28:13.586Z,2.50
2019-06-10T09:30:49.998Z,2.77
2019-06-10T09:33:36.575Z,2.33
2019-06-10T09:36:09.081Z,2.33
2019-06-10T09:38:45.086Z,2.63
2019-06-10T09:41:14.171Z,2.17
2019-06-10T09:43:50.812Z,2.53
2019-06-10T09:46:24.528Z,2.37
2019-06-10T09:48:56.748Z,2.50
2019-06-10T09:51:27.327Z,2.20
2019-06-10T09:54:03.082Z,2.30
2019-06-10T09:56:33.010Z,2.60
2019-06-10T09:59:03.929Z,2.10
2019-06-10T10:01:34.693Z,2.13
2019-06-10T10:04:06.438Z,2.10
2019-06-10T10:06:38.060Z,1.70
2019-06-10T10:09:23.171Z,1.93
2019-06-10T10:11:55.302Z,2.70
2019-06-10T10:14:29.748Z,2.07
2019-06-10T10:17:06.859Z,2.00
2019-06-10T10:19:37.615Z,1.90
2019-06-10T10:22:10.908Z,2.20
2019-06-10T10:24:42.461Z,1.87
2019-06-10T10:27:13.864Z,1.73
2019-06-10T10:29:46.880Z,1.73
2019-06-10T10:32:23.184Z,1.60
2019-06-10T10:34:56.417Z,2.10
2019-06-10T10:37:29.187Z,1.60
2019-06-10T10:40:02.994Z,1.53
2019-06-10T10:42:45.071Z,1.43
2019-06-10T10:45:07.967Z,1.80
2019-06-10T10:47:39.481Z,1.40
2019-06-10T10:50:13.847Z,1.90
2019-06-10T10:52:48.629Z,1.60
2019-06-10T10:55:22.290Z,1.40
2019-06-10T10:57:57.689Z,1.50
2019-06-10T11:00:37.337Z,1.33
2019-06-10T11:03:08.146Z,1.63
2019-06-10T11:05:39.782Z,1.80
2019-06-10T11:08:14.274Z,1.73
2019-06-10T11:10:55.503Z,1.60
2019-06-10T11:13:26.480Z,1.93
2019-06-10T11:15:58.612Z,1.50
2019-06-10T11:18:31.209Z,1.80
2019-06-10T11:21:05.054Z,1.70
2019-06-10T11:23:37.562Z,1.50
2019-06-10T11:26:09.442Z,1.70
2019-06-10T11:28:43.427Z,1.77
2019-06-10T11:31:16.404Z,1.60
2019-06-10T11:33:53.874Z,1.67
2019-06-10T11:36:26.443Z,1.50
2019-06-10T11:39:07.660Z,1.50
2019-06-10T11:41:43.135Z,1.60
2019-06-10T11:44:15.013Z,1.30
2019-06-10T11:46:54.026Z,1.50
2019-06-10T11:49:33.954Z,1.70
2019-06-10T11:52:12.707Z,1.80
2019-06-10T11:55:01.672Z,1.40
2019-06-10T11:57:22.828Z,1.50
2019-06-10T11:59:55.949Z,1.60
2019-06-10T12:02:41.803Z,1.23
2019-06-10T12:05:13.588Z,1.73
2019-06-10T12:07:45.772Z,2.00
2019-06-10T12:10:23.199Z,1.40
2019-06-10T12:13:00.559Z,1.67
2019-06-10T12:16:09.693Z,1.83
2019-06-10T12:18:09.321Z,2.00
2019-06-10T12:20:43.285Z,1.50
2019-06-10T12:23:18.134Z,1.50
2019-06-10T12:25:52.967Z,1.57
2019-06-10T12:28:23.410Z,1.67
2019-06-10T12:30:59.253Z,2.00
2019-06-10T12:33:27.139Z,1.57
2019-06-10T12:36:01.524Z,1.80
2019-06-10T12:38:43.535Z,2.10
2019-06-10T12:41:14.314Z,2.10
2019-06-10T12:43:48.878Z,1.83
2019-06-10T12:46:23.253Z,1.60
2019-06-10T12:48:58.168Z,1.30
2019-06-10T12:51:32.715Z,1.70
2019-06-10T12:54:08.035Z,1.73
2019-06-10T12:56:42.361Z,1.70
2019-06-10T12:59:19.629Z,2.10
2019-06-10T13:01:58.057Z,2.50
2019-06-10T13:04:29.287Z,2.00
2019-06-10T13:07:05.198Z,1.90
2019-06-10T13:09:35.364Z,2.07
2019-06-10T13:12:05.903Z,2.00
2019-06-10T13:14:48.349Z,1.83
2019-06-10T13:17:23.509Z,2.50
2019-06-10T13:20:01.216Z,2.00
2019-06-10T13:22:32.799Z,2.30
2019-06-10T13:25:04.718Z,1.93
2019-06-10T13:27:36.785Z,2.27
2019-06-10T13:30:22.912Z,2.00
2019-06-10T13:32:46.451Z,2.40
2019-06-10T13:35:22.857Z,2.37
2019-06-10T13:37:54.325Z,2.03
2019-06-10T13:40:25.668Z,1.80
2019-06-10T13:42:59.714Z,2.07
2019-06-10T13:45:33.205Z,2.60
2019-06-10T13:48:09.983Z,2.13
2019-06-10T13:50:38.804Z,2.30
2019-06-10T13:53:13.541Z,2.17
2019-06-10T13:55:44.234Z,2.33
2019-06-10T13:58:15.475Z,1.80
2019-06-10T14:00:47.054Z,1.70
2019-06-10T14:03:17.816Z,1.80
2019-06-10T14:05:48.369Z,2.10
2019-06-10T14:08:24.285Z,1.90
2019-06-10T14:10:54.011Z,2.00
2019-06-10T14:13:27.870Z,2.10
2019-06-10T14:15:58.006Z,1.83
2019-06-10T14:18:28.210Z,1.67
2019-06-10T14:20:58.589Z,2.00
2019-06-10T14:23:29.878Z,1.57
2019-06-10T14:26:03.237Z,2.17
2019-06-10T14:28:40.689Z,1.97
2019-06-10T14:31:29.862Z,1.87
2019-06-10T14:33:42.892Z,2.40
2019-06-10T14:36:16.639Z,2.07
2019-06-10T14:38:48.186Z,1.80
2019-06-10T14:41:19.086Z,2.10
2019-06-10T14:43:52.951Z,2.13
2019-06-10T14:46:23.184Z,1.90
2019-06-10T14:48:54.961Z,2.10
2019-06-10T14:51:28.117Z,2.10
2019-06-10T14:54:03.283Z,2.10
2019-06-10T14:56:49.674Z,2.53
2019-06-10T14:59:09.562Z,2.20
2019-06-10T15:01:42.643Z,2.23
2019-06-10T15:04:15.130Z,2.23
2019-06-10T15:06:46.561Z,2.53
2019-06-10T15:09:23.650Z,2.40
2019-06-10T15:11:58.591Z,2.43
2019-06-10T15:14:33.343Z,2.47
2019-06-10T15:17:10.717Z,2.67
2019-06-10T15:19:45.589Z,2.30
2019-06-10T15:22:23.552Z,2.70
2019-06-10T15:28:34.189Z,2.50
2019-06-10T15:31:08.252Z,2.30
2019-06-10T15:33:38.475Z,2.87
2019-06-10T15:36:11.204Z,2.33
2019-06-10T15:38:43.876Z,2.50
2019-06-10T15:41:16.550Z,3.17
2019-06-10T15:43:44.909Z,2.70
2019-06-10T15:46:19.575Z,2.40
2019-06-10T15:48:53.916Z,2.90
2019-06-10T15:51:25.936Z,2.50
2019-06-10T15:53:55.129Z,2.57
2019-06-10T15:56:39.860Z,2.67
2019-06-10T15:59:04.683Z,3.10
2019-06-10T16:01:35.145Z,3.00
2019-06-10T16:04:07.274Z,2.77
2019-06-10T16:06:39.800Z,2.20
2019-06-10T16:09:13.838Z,2.80
2019-06-10T16:11:45.019Z,2.73
2019-06-10T16:14:16.640Z,3.40
2019-06-10T16:16:46.953Z,6.57
2019-06-10T16:19:21.271Z,5.13
2019-06-10T16:21:52.496Z,5.60
2019-06-10T16:24:26.951Z,6.40
2019-06-10T16:26:55.400Z,3.57
2019-06-10T16:29:27.079Z,3.40
2019-06-10T16:31:57.477Z,4.70
2019-06-10T16:34:29.101Z,5.33
2019-06-10T16:36:59.342Z,8.00
2019-06-10T16:39:29.708Z,2.90
2019-06-10T16:41:59.822Z,3.20
2019-06-10T16:44:32.785Z,2.70
2019-06-10T16:47:03.273Z,2.40
2019-06-10T16:49:36.538Z,2.93
2019-06-10T16:52:09.180Z,3.60
2019-06-10T16:54:41.941Z,3.13
2019-06-10T16:57:12.356Z,3.17
2019-06-10T16:59:43.346Z,2.97
2019-06-10T17:02:14.331Z,3.10
2019-06-10T17:04:44.586Z,3.40
2019-06-10T17:07:14.863Z,3.10
2019-06-10T17:09:45.279Z,3.50
2019-06-10T17:12:15.438Z,3.50
2019-06-10T17:14:45.425Z,2.90
2019-06-10T17:17:16.854Z,3.20
2019-06-10T17:19:47.585Z,2.77
2019-06-10T17:22:18.739Z,2.90
2019-06-10T17:24:50.331Z,2.93
2019-06-10T17:27:23.269Z,2.63
2019-06-10T17:29:52.820Z,2.30
2019-06-10T17:32:25.604Z,2.90
2019-06-10T17:34:56.354Z,2.27
2019-06-10T17:37:28.564Z,2.43
2019-06-10T17:39:58.698Z,2.53
2019-06-10T17:42:34.559Z,2.57
2019-06-10T17:45:02.504Z,3.00
2019-06-10T17:47:34.630Z,3.10
2019-06-10T17:50:05.532Z,2.70
2019-06-10T17:52:38.772Z,2.63
2019-06-10T17:55:08.696Z,3.30
2019-06-10T17:57:38.703Z,3.40
2019-06-10T18:00:12.299Z,3.10
2019-06-10T18:02:42.724Z,3.10
2019-06-10T18:05:13.284Z,2.63
2019-06-10T18:07:44.325Z,3.00
2019-06-10T18:10:15.822Z,3.07
2019-06-10T18:12:46.279Z,3.70
2019-06-10T18:15:16.941Z,3.20
2019-06-10T18:17:47.015Z,3.53
2019-06-10T18:20:18.640Z,3.03
2019-06-10T18:22:48.842Z,3.27
2019-06-10T18:25:19.721Z,3.37
2019-06-10T18:27:52.216Z,3.20
2019-06-10T18:30:22.343Z,3.00
2019-06-10T18:32:53.129Z,3.10
2019-06-10T18:35:23.525Z,3.00
2019-06-10T18:37:53.934Z,3.23
2019-06-10T18:40:27.469Z,3.00
2019-06-10T18:42:58.011Z,3.20
2019-06-10T18:45:28.146Z,3.00
2019-06-10T18:47:59.096Z,3.10
2019-06-10T18:50:32.894Z,2.90
2019-06-10T18:53:04.156Z,2.67
2019-06-10T18:55:37.237Z,3.03
2019-06-10T18:58:06.394Z,3.00
2019-06-10T19:00:53.533Z,2.80
2019-06-10T19:03:13.895Z,3.07
2019-06-10T19:05:42.751Z,2.40
2019-06-10T19:08:13.711Z,2.70
2019-06-10T19:10:45.417Z,3.10
2019-06-10T19:13:15.843Z,3.73
2019-06-10T19:15:46.095Z,2.90
2019-06-10T19:18:16.634Z,3.00
2019-06-10T19:20:49.353Z,3.30
2019-06-10T19:23:19.436Z,3.03
2019-06-10T19:25:52.433Z,3.20
2019-06-10T19:28:23.156Z,3.60
2019-06-10T19:30:53.887Z,3.33
2019-06-10T19:33:23.973Z,3.43
2019-06-10T19:35:55.813Z,2.67
2019-06-10T19:38:28.286Z,3.03
2019-06-10T19:40:59.956Z,3.40
2019-06-10T19:43:36.162Z,3.37
2019-06-10T19:46:08.288Z,3.20
2019-06-10T19:48:42.302Z,3.03
2019-06-10T19:51:16.792Z,3.23
2019-06-10T19:53:52.557Z,3.53
2019-06-10T19:56:33.101Z,3.47
2019-06-10T19:59:17.964Z,3.77
2019-06-10T20:01:53.901Z,4.07
2019-06-10T20:04:33.411Z,3.80
2019-06-10T20:07:12.821Z,3.03
2019-06-10T20:09:52.968Z,3.47
2019-06-10T20:12:27.731Z,3.00
2019-06-10T20:15:02.110Z,2.93
2019-06-10T20:17:39.598Z,3.57
2019-06-10T20:20:14.598Z,3.47
2019-06-10T20:22:49.020Z,3.50
2019-06-10T20:25:22.348Z,3.53
2019-06-10T20:28:03.023Z,3.37
2019-06-10T20:30:37.210Z,3.10
2019-06-10T20:33:09.650Z,3.57
2019-06-10T20:35:42.131Z,4.00
2019-06-10T20:38:17.152Z,3.33
2019-06-10T20:40:48.769Z,3.10
2019-06-10T20:43:19.139Z,3.80
2019-06-10T20:45:50.457Z,3.77
2019-06-10T20:48:24.276Z,3.20
2019-06-10T20:50:55.394Z,3.80
2019-06-10T20:53:25.615Z,3.20
2019-06-10T20:55:57.662Z,4.00
2019-06-10T20:58:28.181Z,4.10
2019-06-10T21:00:58.701Z,3.90
2019-06-10T21:03:32.364Z,4.30
2019-06-10T21:06:05.089Z,3.67
2019-06-10T21:08:35.926Z,3.60
2019-06-10T21:11:06.367Z,3.80
2019-06-10T21:13:37.422Z,4.40
2019-06-10T21:16:09.529Z,3.90
2019-06-10T21:18:40.360Z,4.33
2019-06-10T21:21:10.788Z,3.80
2019-06-10T21:23:44.631Z,3.80
2019-06-10T21:26:14.737Z,3.90
2019-06-10T21:28:48.507Z,4.10
2019-06-10T21:31:17.541Z,3.60
2019-06-10T21:33:49.545Z,3.47
2019-06-10T21:36:19.966Z,3.90
2019-06-10T21:38:51.867Z,3.83
2019-06-10T21:41:22.759Z,3.23
2019-06-10T21:43:59.160Z,3.53
2019-06-10T21:46:24.922Z,3.63
2019-06-10T21:48:55.838Z,3.73
2019-06-10T21:51:26.694Z,4.10
2019-06-10T21:53:57.791Z,4.37
2019-06-10T21:56:32.816Z,3.57
2019-06-10T21:59:02.958Z,4.10
2019-06-10T22:01:33.711Z,4.30
2019-06-10T22:04:06.411Z,3.87
2019-06-10T22:06:36.338Z,3.70
2019-06-10T22:09:12.357Z,4.17
2019-06-10T22:11:48.538Z,3.10
2019-06-10T22:14:26.418Z,3.57
2019-06-10T22:16:57.070Z,3.50
2019-06-10T22:19:27.103Z,3.87
2019-06-10T22:21:56.977Z,3.77
2019-06-10T22:24:26.996Z,4.20
2019-06-10T22:26:57.559Z,3.97
2019-06-10T22:29:28.853Z,4.20
2019-06-10T22:31:58.774Z,3.90
2019-06-10T22:34:28.919Z,4.63
2019-06-10T22:36:59.223Z,4.00
2019-06-10T22:39:29.213Z,3.73
2019-06-10T22:41:59.702Z,3.63
2019-06-10T22:44:29.852Z,3.87
2019-06-10T22:47:02.779Z,4.10
2019-06-10T22:49:32.812Z,4.63
2019-06-10T22:52:05.906Z,3.80
2019-06-10T22:54:36.110Z,4.13
2019-06-10T22:57:06.929Z,4.10
2019-06-10T22:59:37.237Z,3.80
2019-06-10T23:02:07.374Z,4.30
2019-06-10T23:04:39.190Z,4.63
2019-06-10T23:07:09.032Z,4.67
2019-06-10T23:09:39.578Z,4.00
2019-06-10T23:12:11.952Z,5.00
2019-06-10T23:14:45.065Z,4.37
2019-06-10T23:17:15.456Z,4.50
2019-06-10T23:19:47.109Z,4.60
2019-06-10T23:22:17.465Z,4.00
2019-06-10T23:24:47.743Z,4.40
2019-06-10T23:27:19.287Z,4.50
2019-06-10T23:29:53.937Z,4.60
2019-06-10T23:32:23.017Z,4.30
2019-06-10T23:34:54.698Z,4.10
2019-06-10T23:37:26.981Z,3.90
2019-06-10T23:39:57.035Z,3.87
2019-06-10T23:42:28.398Z,4.00
2019-06-10T23:44:59.195Z,3.83
2019-06-10T23:47:29.814Z,3.80
2019-06-10T23:50:03.717Z,3.90
2019-06-10T23:52:32.968Z,3.60
2019-06-10T23:55:04.518Z,3.60
2019-06-10T23:57:34.725Z,3.83
